sensor_id;sensor_type;location;lat;lon;timestamp;pressure;altitude;pressure_sealevel;temperature;humidity
48156;BME280;35568;48.104;11.782;2023-03-01T00:00:39;95900.05;;;1.86;45.17
48156;BME280;35568;48.104;11.782;2023-03-01T00:03:07;95900.18;;;2.27;45.52
48156;BME280;35568;48.104;11.782;2023-03-01T00:05:33;95898.29;;;2.02;44.90
48156;BME280;35568;48.104;11.782;2023-03-01T00:08:00;95900.43;;;1.99;45.13
48156;BME280;35568;48.104;11.782;2023-03-01T00:10:28;95899.53;;;1.64;45.19
48156;BME280;35568;48.104;11.782;2023-03-01T00:12:54;95897.96;;;1.83;44.97
48156;BME280;35568;48.104;11.782;2023-03-01T00:15:22;95897.86;;;2.00;44.97
48156;BME280;35568;48.104;11.782;2023-03-01T00:17:49;95898.17;;;1.91;45.15
48156;BME280;35568;48.104;11.782;2023-03-01T00:20:16;95897.13;;;1.89;45.25
48156;BME280;35568;48.104;11.782;2023-03-01T00:22:43;95896.94;;;2.35;45.07
48156;BME280;35568;48.104;11.782;2023-03-01T00:25:10;95896.90;;;2.03;44.93
48156;BME280;35568;48.104;11.782;2023-03-01T00:27:37;95895.46;;;1.87;45.00
48156;BME280;35568;48.104;11.782;2023-03-01T00:30:05;95895.09;;;1.60;45.04
48156;BME280;35568;48.104;11.782;2023-03-01T00:32:32;95890.93;;;1.69;45.00
48156;BME280;35568;48.104;11.782;2023-03-01T00:34:59;95891.84;;;1.63;45.56
48156;BME280;35568;48.104;11.782;2023-03-01T00:37:26;95889.24;;;1.50;45.23
48156;BME280;35568;48.104;11.782;2023-03-01T00:39:53;95889.25;;;1.76;45.82
48156;BME280;35568;48.104;11.782;2023-03-01T00:42:20;95887.01;;;1.37;45.95
48156;BME280;35568;48.104;11.782;2023-03-01T00:44:46;95887.69;;;1.86;45.66
48156;BME280;35568;48.104;11.782;2023-03-01T00:47:13;95887.64;;;1.85;45.61
48156;BME280;35568;48.104;11.782;2023-03-01T00:49:40;95883.02;;;2.17;44.97
48156;BME280;35568;48.104;11.782;2023-03-01T00:52:07;95879.25;;;1.82;45.10
48156;BME280;35568;48.104;11.782;2023-03-01T00:54:33;95877.15;;;2.08;44.94
48156;BME280;35568;48.104;11.782;2023-03-01T00:57:00;95874.26;;;1.78;44.69
48156;BME280;35568;48.104;11.782;2023-03-01T00:59:27;95869.41;;;1.88;44.77
48156;BME280;35568;48.104;11.782;2023-03-01T01:01:55;95866.38;;;2.03;45.14
48156;BME280;35568;48.104;11.782;2023-03-01T01:04:22;95864.68;;;1.69;45.07
48156;BME280;35568;48.104;11.782;2023-03-01T01:06:49;95864.49;;;2.04;45.00
48156;BME280;35568;48.104;11.782;2023-03-01T01:09:17;95860.68;;;1.87;44.76
48156;BME280;35568;48.104;11.782;2023-03-01T01:11:44;95856.80;;;1.91;45.01
48156;BME280;35568;48.104;11.782;2023-03-01T01:14:12;95855.02;;;2.01;44.76
48156;BME280;35568;48.104;11.782;2023-03-01T01:16:39;95850.36;;;1.64;45.44
48156;BME280;35568;48.104;11.782;2023-03-01T01:19:06;95843.84;;;1.74;45.12
48156;BME280;35568;48.104;11.782;2023-03-01T01:21:34;95841.21;;;1.67;45.02
48156;BME280;35568;48.104;11.782;2023-03-01T01:24:02;95844.82;;;1.75;45.53
48156;BME280;35568;48.104;11.782;2023-03-01T01:26:31;95843.08;;;1.41;45.60
48156;BME280;35568;48.104;11.782;2023-03-01T01:28:59;95841.03;;;1.50;45.62
48156;BME280;35568;48.104;11.782;2023-03-01T01:31:27;95837.57;;;1.21;45.75
48156;BME280;35568;48.104;11.782;2023-03-01T01:33:55;95832.63;;;1.02;45.92
48156;BME280;35568;48.104;11.782;2023-03-01T01:36:23;95831.72;;;1.39;45.64
48156;BME280;35568;48.104;11.782;2023-03-01T01:38:50;95829.51;;;1.39;45.32
48156;BME280;35568;48.104;11.782;2023-03-01T01:41:19;95825.57;;;1.66;44.76
48156;BME280;35568;48.104;11.782;2023-03-01T01:43:47;95822.73;;;1.98;45.15
48156;BME280;35568;48.104;11.782;2023-03-01T01:46:22;95823.17;;;1.70;45.17
48156;BME280;35568;48.104;11.782;2023-03-01T01:48:55;95816.06;;;1.59;45.48
48156;BME280;35568;48.104;11.782;2023-03-01T01:51:25;95815.72;;;1.86;45.23
48156;BME280;35568;48.104;11.782;2023-03-01T01:53:57;95812.97;;;2.10;44.92
48156;BME280;35568;48.104;11.782;2023-03-01T01:56:29;95809.91;;;1.54;45.36
48156;BME280;35568;48.104;11.782;2023-03-01T01:58:56;95804.90;;;1.91;44.64
48156;BME280;35568;48.104;11.782;2023-03-01T02:01:24;95800.95;;;1.88;45.23
48156;BME280;35568;48.104;11.782;2023-03-01T02:03:52;95797.14;;;2.17;44.96
48156;BME280;35568;48.104;11.782;2023-03-01T02:06:23;95797.49;;;1.67;44.88
48156;BME280;35568;48.104;11.782;2023-03-01T02:08:53;95797.21;;;1.79;44.88
48156;BME280;35568;48.104;11.782;2023-03-01T02:11:20;95800.46;;;1.89;45.08
48156;BME280;35568;48.104;11.782;2023-03-01T02:13:48;95800.65;;;2.09;44.72
48156;BME280;35568;48.104;11.782;2023-03-01T02:16:17;95796.70;;;1.91;45.10
48156;BME280;35568;48.104;11.782;2023-03-01T02:18:45;95796.43;;;1.74;45.22
48156;BME280;35568;48.104;11.782;2023-03-01T02:21:22;95795.06;;;1.51;45.00
48156;BME280;35568;48.104;11.782;2023-03-01T02:23:53;95791.12;;;1.88;44.91
48156;BME280;35568;48.104;11.782;2023-03-01T02:26:25;95784.24;;;2.14;44.56
48156;BME280;35568;48.104;11.782;2023-03-01T02:28:56;95782.68;;;2.14;44.32
48156;BME280;35568;48.104;11.782;2023-03-01T02:31:23;95786.28;;;2.22;44.40
48156;BME280;35568;48.104;11.782;2023-03-01T02:33:51;95782.49;;;1.82;45.02
48156;BME280;35568;48.104;11.782;2023-03-01T02:36:21;95780.93;;;1.83;45.18
48156;BME280;35568;48.104;11.782;2023-03-01T02:38:52;95779.92;;;1.76;45.14
48156;BME280;35568;48.104;11.782;2023-03-01T02:41:21;95782.43;;;2.09;44.64
48156;BME280;35568;48.104;11.782;2023-03-01T02:43:48;95781.14;;;1.81;44.62
48156;BME280;35568;48.104;11.782;2023-03-01T02:46:18;95778.90;;;1.71;44.79
48156;BME280;35568;48.104;11.782;2023-03-01T02:48:48;95780.40;;;1.39;44.66
48156;BME280;35568;48.104;11.782;2023-03-01T02:51:30;95778.92;;;1.46;44.96
48156;BME280;35568;48.104;11.782;2023-03-01T02:54:08;95775.78;;;1.41;44.92
48156;BME280;35568;48.104;11.782;2023-03-01T02:56:38;95773.84;;;1.64;45.03
48156;BME280;35568;48.104;11.782;2023-03-01T02:59:05;95780.00;;;1.82;45.06
48156;BME280;35568;48.104;11.782;2023-03-01T03:01:32;95780.79;;;1.71;44.80
48156;BME280;35568;48.104;11.782;2023-03-01T03:04:00;95777.63;;;1.73;44.49
48156;BME280;35568;48.104;11.782;2023-03-01T03:06:27;95776.61;;;1.69;44.56
48156;BME280;35568;48.104;11.782;2023-03-01T03:08:54;95777.44;;;1.61;44.44
48156;BME280;35568;48.104;11.782;2023-03-01T03:11:21;95775.49;;;1.51;44.65
48156;BME280;35568;48.104;11.782;2023-03-01T03:13:48;95781.45;;;1.03;45.25
48156;BME280;35568;48.104;11.782;2023-03-01T03:16:15;95781.75;;;1.00;45.36
48156;BME280;35568;48.104;11.782;2023-03-01T03:18:42;95781.76;;;1.05;45.54
48156;BME280;35568;48.104;11.782;2023-03-01T03:21:10;95777.75;;;0.86;45.83
48156;BME280;35568;48.104;11.782;2023-03-01T03:23:38;95776.05;;;1.23;45.51
48156;BME280;35568;48.104;11.782;2023-03-01T03:26:06;95774.30;;;1.35;45.21
48156;BME280;35568;48.104;11.782;2023-03-01T03:28:34;95775.36;;;1.26;45.36
48156;BME280;35568;48.104;11.782;2023-03-01T03:31:01;95778.95;;;1.35;45.29
48156;BME280;35568;48.104;11.782;2023-03-01T03:33:29;95777.41;;;1.32;44.53
48156;BME280;35568;48.104;11.782;2023-03-01T03:35:56;95774.53;;;1.21;44.71
48156;BME280;35568;48.104;11.782;2023-03-01T03:38:24;95774.69;;;1.45;44.98
48156;BME280;35568;48.104;11.782;2023-03-01T03:40:52;95774.67;;;1.23;44.86
48156;BME280;35568;48.104;11.782;2023-03-01T03:43:25;95766.40;;;0.65;45.28
48156;BME280;35568;48.104;11.782;2023-03-01T03:45:52;95767.53;;;0.92;45.90
48156;BME280;35568;48.104;11.782;2023-03-01T03:48:20;95764.30;;;0.45;46.06
48156;BME280;35568;48.104;11.782;2023-03-01T03:50:49;95761.31;;;1.00;45.68
48156;BME280;35568;48.104;11.782;2023-03-01T03:53:18;95759.55;;;1.10;45.00
48156;BME280;35568;48.104;11.782;2023-03-01T03:55:45;95755.90;;;0.98;45.04
48156;BME280;35568;48.104;11.782;2023-03-01T03:58:12;95755.61;;;1.12;45.01
48156;BME280;35568;48.104;11.782;2023-03-01T04:03:00;95750.74;;;1.43;44.41
48156;BME280;35568;48.104;11.782;2023-03-01T04:05:29;95750.73;;;1.37;44.76
48156;BME280;35568;48.104;11.782;2023-03-01T04:07:56;95754.43;;;1.02;44.95
48156;BME280;35568;48.104;11.782;2023-03-01T04:10:23;95753.71;;;1.29;44.79
48156;BME280;35568;48.104;11.782;2023-03-01T04:12:50;95751.69;;;1.11;44.49
48156;BME280;35568;48.104;11.782;2023-03-01T04:15:17;95753.48;;;0.90;44.51
48156;BME280;35568;48.104;11.782;2023-03-01T04:17:45;95749.88;;;1.26;44.60
48156;BME280;35568;48.104;11.782;2023-03-01T04:20:14;95751.14;;;1.02;45.07
48156;BME280;35568;48.104;11.782;2023-03-01T04:22:41;95747.18;;;0.71;44.75
48156;BME280;35568;48.104;11.782;2023-03-01T04:25:09;95747.11;;;0.54;45.16
48156;BME280;35568;48.104;11.782;2023-03-01T04:27:36;95744.56;;;0.90;45.58
48156;BME280;35568;48.104;11.782;2023-03-01T04:30:04;95744.61;;;0.77;45.26
48156;BME280;35568;48.104;11.782;2023-03-01T04:32:31;95743.54;;;0.91;45.31
48156;BME280;35568;48.104;11.782;2023-03-01T04:34:59;95742.46;;;0.73;45.17
48156;BME280;35568;48.104;11.782;2023-03-01T04:37:25;95740.59;;;1.08;45.24
48156;BME280;35568;48.104;11.782;2023-03-01T04:39:53;95738.60;;;0.81;45.02
48156;BME280;35568;48.104;11.782;2023-03-01T04:42:20;95742.24;;;1.06;44.73
48156;BME280;35568;48.104;11.782;2023-03-01T04:44:47;95742.51;;;0.80;44.98
48156;BME280;35568;48.104;11.782;2023-03-01T04:47:14;95742.97;;;0.87;44.71
48156;BME280;35568;48.104;11.782;2023-03-01T04:49:41;95747.56;;;0.31;45.21
48156;BME280;35568;48.104;11.782;2023-03-01T04:52:08;95743.50;;;0.42;46.01
48156;BME280;35568;48.104;11.782;2023-03-01T04:54:36;95741.32;;;0.28;46.08
48156;BME280;35568;48.104;11.782;2023-03-01T04:57:03;95740.67;;;0.11;46.07
48156;BME280;35568;48.104;11.782;2023-03-01T04:59:30;95742.49;;;-0.20;46.38
48156;BME280;35568;48.104;11.782;2023-03-01T05:01:57;95742.51;;;0.13;46.55
48156;BME280;35568;48.104;11.782;2023-03-01T05:04:24;95745.32;;;0.56;46.46
48156;BME280;35568;48.104;11.782;2023-03-01T05:06:51;95743.07;;;0.19;46.13
48156;BME280;35568;48.104;11.782;2023-03-01T05:09:18;95737.67;;;-0.13;46.46
48156;BME280;35568;48.104;11.782;2023-03-01T05:11:46;95735.32;;;0.04;46.49
48156;BME280;35568;48.104;11.782;2023-03-01T05:14:13;95736.84;;;0.21;46.64
48156;BME280;35568;48.104;11.782;2023-03-01T05:16:40;95737.87;;;0.21;46.30
48156;BME280;35568;48.104;11.782;2023-03-01T05:19:08;95736.74;;;0.19;46.67
48156;BME280;35568;48.104;11.782;2023-03-01T05:21:35;95732.44;;;0.27;45.92
48156;BME280;35568;48.104;11.782;2023-03-01T05:24:02;95731.23;;;0.59;46.52
48156;BME280;35568;48.104;11.782;2023-03-01T05:26:29;95731.62;;;0.26;45.98
48156;BME280;35568;48.104;11.782;2023-03-01T05:28:56;95733.34;;;0.19;46.17
48156;BME280;35568;48.104;11.782;2023-03-01T05:31:23;95730.35;;;0.15;46.12
48156;BME280;35568;48.104;11.782;2023-03-01T05:33:51;95729.54;;;-0.07;46.26
48156;BME280;35568;48.104;11.782;2023-03-01T05:36:18;95731.18;;;0.13;46.51
48156;BME280;35568;48.104;11.782;2023-03-01T05:38:45;95726.76;;;0.09;46.62
48156;BME280;35568;48.104;11.782;2023-03-01T05:41:14;95721.72;;;0.12;46.19
48156;BME280;35568;48.104;11.782;2023-03-01T05:43:41;95714.24;;;0.46;46.01
48156;BME280;35568;48.104;11.782;2023-03-01T05:46:08;95714.06;;;0.53;45.95
48156;BME280;35568;48.104;11.782;2023-03-01T05:48:35;95717.61;;;0.02;46.42
48156;BME280;35568;48.104;11.782;2023-03-01T05:51:02;95718.43;;;0.02;46.26
48156;BME280;35568;48.104;11.782;2023-03-01T05:53:29;95717.93;;;-0.19;46.98
48156;BME280;35568;48.104;11.782;2023-03-01T05:55:56;95715.66;;;-0.24;47.02
48156;BME280;35568;48.104;11.782;2023-03-01T05:58:23;95718.01;;;-0.07;46.57
48156;BME280;35568;48.104;11.782;2023-03-01T06:00:50;95721.68;;;0.40;45.94
48156;BME280;35568;48.104;11.782;2023-03-01T06:03:17;95718.38;;;0.38;45.95
48156;BME280;35568;48.104;11.782;2023-03-01T06:05:45;95721.86;;;0.40;46.10
48156;BME280;35568;48.104;11.782;2023-03-01T06:08:12;95725.52;;;0.26;46.12
48156;BME280;35568;48.104;11.782;2023-03-01T06:10:40;95728.03;;;0.31;45.72
48156;BME280;35568;48.104;11.782;2023-03-01T06:13:07;95728.05;;;0.37;45.73
48156;BME280;35568;48.104;11.782;2023-03-01T06:15:34;95726.86;;;0.45;45.09
48156;BME280;35568;48.104;11.782;2023-03-01T06:18:01;95728.56;;;0.35;45.83
48156;BME280;35568;48.104;11.782;2023-03-01T06:20:29;95726.89;;;-0.56;45.57
48156;BME280;35568;48.104;11.782;2023-03-01T06:22:56;95730.58;;;0.76;45.40
48156;BME280;35568;48.104;11.782;2023-03-01T06:25:24;95730.76;;;0.81;45.50
48156;BME280;35568;48.104;11.782;2023-03-01T06:27:52;95733.54;;;0.54;45.92
48156;BME280;35568;48.104;11.782;2023-03-01T06:30:20;95731.07;;;1.01;45.30
48156;BME280;35568;48.104;11.782;2023-03-01T06:32:48;95729.65;;;0.98;45.37
48156;BME280;35568;48.104;11.782;2023-03-01T06:35:16;95727.93;;;0.76;45.78
48156;BME280;35568;48.104;11.782;2023-03-01T06:37:44;95726.46;;;0.54;45.44
48156;BME280;35568;48.104;11.782;2023-03-01T06:40:13;95728.37;;;0.60;45.54
48156;BME280;35568;48.104;11.782;2023-03-01T06:42:44;95730.29;;;1.01;45.12
48156;BME280;35568;48.104;11.782;2023-03-01T06:45:13;95731.56;;;0.77;45.01
48156;BME280;35568;48.104;11.782;2023-03-01T06:47:41;95728.37;;;0.74;45.20
48156;BME280;35568;48.104;11.782;2023-03-01T06:50:09;95729.12;;;0.83;44.68
48156;BME280;35568;48.104;11.782;2023-03-01T06:52:37;95728.51;;;0.63;45.32
48156;BME280;35568;48.104;11.782;2023-03-01T06:55:05;95734.18;;;0.62;45.62
48156;BME280;35568;48.104;11.782;2023-03-01T06:57:33;95736.40;;;0.38;45.73
48156;BME280;35568;48.104;11.782;2023-03-01T06:59:59;95729.79;;;0.79;45.42
48156;BME280;35568;48.104;11.782;2023-03-01T07:02:26;95736.17;;;0.37;45.84
48156;BME280;35568;48.104;11.782;2023-03-01T07:04:53;95739.94;;;0.62;46.12
48156;BME280;35568;48.104;11.782;2023-03-01T07:07:20;95741.95;;;0.49;46.13
48156;BME280;35568;48.104;11.782;2023-03-01T07:09:49;95736.89;;;0.30;45.58
48156;BME280;35568;48.104;11.782;2023-03-01T07:12:16;95732.99;;;0.39;45.80
48156;BME280;35568;48.104;11.782;2023-03-01T07:14:44;95727.86;;;0.67;45.60
48156;BME280;35568;48.104;11.782;2023-03-01T07:17:11;95728.15;;;0.81;45.48
48156;BME280;35568;48.104;11.782;2023-03-01T07:19:38;95730.48;;;0.39;45.59
48156;BME280;35568;48.104;11.782;2023-03-01T07:22:05;95729.92;;;0.42;45.61
48156;BME280;35568;48.104;11.782;2023-03-01T07:24:32;95723.34;;;0.35;46.72
48156;BME280;35568;48.104;11.782;2023-03-01T07:26:59;95717.92;;;0.84;46.12
48156;BME280;35568;48.104;11.782;2023-03-01T07:29:26;95718.91;;;0.44;46.21
48156;BME280;35568;48.104;11.782;2023-03-01T07:31:53;95718.62;;;0.80;45.08
48156;BME280;35568;48.104;11.782;2023-03-01T07:34:20;95718.47;;;0.59;46.07
48156;BME280;35568;48.104;11.782;2023-03-01T07:36:47;95712.79;;;0.96;45.08
48156;BME280;35568;48.104;11.782;2023-03-01T07:39:14;95710.80;;;1.02;44.63
48156;BME280;35568;48.104;11.782;2023-03-01T07:41:41;95712.27;;;1.14;45.11
48156;BME280;35568;48.104;11.782;2023-03-01T07:44:08;95709.39;;;0.96;46.33
48156;BME280;35568;48.104;11.782;2023-03-01T07:46:35;95710.10;;;1.12;44.65
48156;BME280;35568;48.104;11.782;2023-03-01T07:49:02;95711.04;;;1.47;45.25
48156;BME280;35568;48.104;11.782;2023-03-01T07:51:28;95707.96;;;1.86;44.29
48156;BME280;35568;48.104;11.782;2023-03-01T07:53:55;95707.93;;;2.32;43.64
48156;BME280;35568;48.104;11.782;2023-03-01T07:56:22;95709.10;;;2.43;43.87
48156;BME280;35568;48.104;11.782;2023-03-01T07:58:49;95708.11;;;2.57;44.18
48156;BME280;35568;48.104;11.782;2023-03-01T08:01:18;95708.63;;;2.22;44.81
48156;BME280;35568;48.104;11.782;2023-03-01T08:03:45;95703.76;;;2.70;42.73
48156;BME280;35568;48.104;11.782;2023-03-01T08:06:14;95704.74;;;1.87;42.44
48156;BME280;35568;48.104;11.782;2023-03-01T08:08:42;95705.81;;;2.14;42.53
48156;BME280;35568;48.104;11.782;2023-03-01T08:11:11;95709.29;;;1.79;42.84
48156;BME280;35568;48.104;11.782;2023-03-01T08:13:38;95704.83;;;2.48;42.78
48156;BME280;35568;48.104;11.782;2023-03-01T08:16:08;95695.85;;;1.85;43.34
48156;BME280;35568;48.104;11.782;2023-03-01T08:18:36;95694.82;;;2.18;43.62
48156;BME280;35568;48.104;11.782;2023-03-01T08:21:03;95694.97;;;2.55;44.04
48156;BME280;35568;48.104;11.782;2023-03-01T08:23:31;95692.62;;;2.78;42.06
48156;BME280;35568;48.104;11.782;2023-03-01T08:26:08;95700.20;;;2.67;42.16
48156;BME280;35568;48.104;11.782;2023-03-01T08:28:36;95704.96;;;2.45;41.82
48156;BME280;35568;48.104;11.782;2023-03-01T08:31:04;95698.75;;;2.57;41.20
48156;BME280;35568;48.104;11.782;2023-03-01T08:33:39;95696.67;;;2.19;41.84
48156;BME280;35568;48.104;11.782;2023-03-01T08:36:06;95693.28;;;2.05;41.69
48156;BME280;35568;48.104;11.782;2023-03-01T08:38:33;95689.91;;;1.82;42.47
48156;BME280;35568;48.104;11.782;2023-03-01T08:41:01;95686.11;;;2.43;42.88
48156;BME280;35568;48.104;11.782;2023-03-01T08:43:29;95689.81;;;2.40;42.18
48156;BME280;35568;48.104;11.782;2023-03-01T08:45:56;95680.38;;;2.23;42.30
48156;BME280;35568;48.104;11.782;2023-03-01T08:48:23;95681.77;;;1.96;42.61
48156;BME280;35568;48.104;11.782;2023-03-01T08:50:50;95682.70;;;1.92;42.69
48156;BME280;35568;48.104;11.782;2023-03-01T08:53:17;95682.26;;;2.11;43.45
48156;BME280;35568;48.104;11.782;2023-03-01T08:55:44;95681.75;;;2.35;42.48
48156;BME280;35568;48.104;11.782;2023-03-01T08:58:11;95679.70;;;2.36;42.22
48156;BME280;35568;48.104;11.782;2023-03-01T09:00:38;95678.33;;;2.24;42.22
48156;BME280;35568;48.104;11.782;2023-03-01T09:03:05;95681.81;;;2.23;42.47
48156;BME280;35568;48.104;11.782;2023-03-01T09:05:33;95680.30;;;2.30;42.84
48156;BME280;35568;48.104;11.782;2023-03-01T09:08:00;95684.56;;;2.61;41.85
48156;BME280;35568;48.104;11.782;2023-03-01T09:10:27;95685.29;;;2.87;41.98
48156;BME280;35568;48.104;11.782;2023-03-01T09:12:54;95679.37;;;2.54;41.48
48156;BME280;35568;48.104;11.782;2023-03-01T09:15:21;95672.98;;;2.27;41.97
48156;BME280;35568;48.104;11.782;2023-03-01T09:17:48;95672.29;;;2.62;41.91
48156;BME280;35568;48.104;11.782;2023-03-01T09:20:16;95673.06;;;2.53;41.73
48156;BME280;35568;48.104;11.782;2023-03-01T09:22:43;95668.62;;;2.34;42.58
48156;BME280;35568;48.104;11.782;2023-03-01T09:25:10;95667.12;;;2.68;42.35
48156;BME280;35568;48.104;11.782;2023-03-01T09:27:37;95666.42;;;3.10;41.61
48156;BME280;35568;48.104;11.782;2023-03-01T09:30:05;95665.20;;;2.99;42.31
48156;BME280;35568;48.104;11.782;2023-03-01T09:32:33;95666.23;;;3.18;41.92
48156;BME280;35568;48.104;11.782;2023-03-01T09:35:00;95671.31;;;2.44;41.63
48156;BME280;35568;48.104;11.782;2023-03-01T09:37:27;95666.37;;;2.81;42.31
48156;BME280;35568;48.104;11.782;2023-03-01T09:39:54;95663.42;;;2.74;41.47
48156;BME280;35568;48.104;11.782;2023-03-01T09:42:22;95665.86;;;2.87;41.70
48156;BME280;35568;48.104;11.782;2023-03-01T09:44:52;95665.39;;;3.02;41.63
48156;BME280;35568;48.104;11.782;2023-03-01T09:47:24;95669.35;;;2.88;41.59
48156;BME280;35568;48.104;11.782;2023-03-01T09:49:58;95668.95;;;3.14;41.43
48156;BME280;35568;48.104;11.782;2023-03-01T09:52:32;95670.59;;;3.21;41.85
48156;BME280;35568;48.104;11.782;2023-03-01T09:55:01;95671.23;;;3.42;41.33
48156;BME280;35568;48.104;11.782;2023-03-01T09:57:38;95666.43;;;3.14;41.41
48156;BME280;35568;48.104;11.782;2023-03-01T10:00:17;95660.14;;;3.11;41.53
48156;BME280;35568;48.104;11.782;2023-03-01T10:02:51;95660.46;;;3.29;41.37
48156;BME280;35568;48.104;11.782;2023-03-01T10:05:29;95659.10;;;3.47;41.08
48156;BME280;35568;48.104;11.782;2023-03-01T10:08:10;95658.01;;;3.22;41.14
48156;BME280;35568;48.104;11.782;2023-03-01T10:10:44;95658.19;;;3.55;41.75
48156;BME280;35568;48.104;11.782;2023-03-01T10:13:16;95653.69;;;3.00;41.43
48156;BME280;35568;48.104;11.782;2023-03-01T10:15:48;95653.21;;;3.50;41.35
48156;BME280;35568;48.104;11.782;2023-03-01T10:18:21;95648.62;;;2.94;42.09
48156;BME280;35568;48.104;11.782;2023-03-01T10:20:53;95639.48;;;3.36;41.38
48156;BME280;35568;48.104;11.782;2023-03-01T10:23:22;95639.50;;;3.94;40.76
48156;BME280;35568;48.104;11.782;2023-03-01T10:26:05;95645.12;;;3.88;39.98
48156;BME280;35568;48.104;11.782;2023-03-01T10:28:42;95641.74;;;5.02;38.86
48156;BME280;35568;48.104;11.782;2023-03-01T10:31:13;95646.41;;;5.32;38.65
48156;BME280;35568;48.104;11.782;2023-03-01T10:33:42;95639.20;;;5.83;36.79
48156;BME280;35568;48.104;11.782;2023-03-01T10:36:08;95638.92;;;5.78;37.20
48156;BME280;35568;48.104;11.782;2023-03-01T10:38:49;95640.18;;;6.29;36.86
48156;BME280;35568;48.104;11.782;2023-03-01T10:41:16;95638.95;;;6.30;37.01
48156;BME280;35568;48.104;11.782;2023-03-01T10:43:45;95631.56;;;6.27;35.80
48156;BME280;35568;48.104;11.782;2023-03-01T10:46:24;95628.10;;;6.43;35.59
48156;BME280;35568;48.104;11.782;2023-03-01T10:49:14;95618.69;;;6.20;35.19
48156;BME280;35568;48.104;11.782;2023-03-01T10:51:42;95616.61;;;6.12;35.39
48156;BME280;35568;48.104;11.782;2023-03-01T10:54:17;95605.33;;;6.73;35.61
48156;BME280;35568;48.104;11.782;2023-03-01T10:56:47;95600.33;;;6.98;35.23
48156;BME280;35568;48.104;11.782;2023-03-01T10:59:22;95596.29;;;7.13;34.62
48156;BME280;35568;48.104;11.782;2023-03-01T11:02:09;95585.92;;;7.53;34.93
48156;BME280;35568;48.104;11.782;2023-03-01T11:04:56;95585.26;;;7.65;33.76
48156;BME280;35568;48.104;11.782;2023-03-01T11:07:23;95582.19;;;7.55;33.52
48156;BME280;35568;48.104;11.782;2023-03-01T11:09:50;95578.83;;;7.61;33.89
48156;BME280;35568;48.104;11.782;2023-03-01T11:12:18;95572.01;;;8.10;33.32
48156;BME280;35568;48.104;11.782;2023-03-01T11:14:47;95565.92;;;8.20;33.19
48156;BME280;35568;48.104;11.782;2023-03-01T11:17:26;95561.28;;;8.35;32.43
48156;BME280;35568;48.104;11.782;2023-03-01T11:20:06;95560.85;;;7.85;33.28
48156;BME280;35568;48.104;11.782;2023-03-01T11:22:46;95547.62;;;9.09;31.97
48156;BME280;35568;48.104;11.782;2023-03-01T11:25:14;95543.59;;;9.40;30.93
48156;BME280;35568;48.104;11.782;2023-03-01T11:27:44;95546.38;;;9.52;30.98
48156;BME280;35568;48.104;11.782;2023-03-01T11:30:20;95543.75;;;9.32;31.46
48156;BME280;35568;48.104;11.782;2023-03-01T11:32:54;95536.11;;;9.37;31.01
48156;BME280;35568;48.104;11.782;2023-03-01T11:35:27;95528.98;;;9.52;31.63
48156;BME280;35568;48.104;11.782;2023-03-01T11:37:59;95531.49;;;9.77;32.36
48156;BME280;35568;48.104;11.782;2023-03-01T11:40:33;95525.27;;;9.81;31.63
48156;BME280;35568;48.104;11.782;2023-03-01T11:43:10;95518.03;;;10.66;30.48
48156;BME280;35568;48.104;11.782;2023-03-01T11:45:50;95521.24;;;11.09;29.06
48156;BME280;35568;48.104;11.782;2023-03-01T11:48:33;95515.55;;;11.39;29.22
48156;BME280;35568;48.104;11.782;2023-03-01T11:51:07;95514.21;;;10.88;28.88
48156;BME280;35568;48.104;11.782;2023-03-01T11:53:50;95513.00;;;10.87;29.59
48156;BME280;35568;48.104;11.782;2023-03-01T11:56:28;95514.37;;;11.13;29.72
48156;BME280;35568;48.104;11.782;2023-03-01T11:59:23;95515.60;;;10.05;30.01
48156;BME280;35568;48.104;11.782;2023-03-01T12:02:12;95511.26;;;9.71;30.01
48156;BME280;35568;48.104;11.782;2023-03-01T12:04:54;95507.00;;;10.44;30.50
48156;BME280;35568;48.104;11.782;2023-03-01T12:07:34;95509.18;;;10.38;29.46
48156;BME280;35568;48.104;11.782;2023-03-01T12:10:20;95501.68;;;10.26;30.29
48156;BME280;35568;48.104;11.782;2023-03-01T12:13:04;95487.97;;;10.96;29.91
48156;BME280;35568;48.104;11.782;2023-03-01T12:15:48;95485.18;;;11.52;29.94
48156;BME280;35568;48.104;11.782;2023-03-01T12:19:29;95489.65;;;12.34;28.60
48156;BME280;35568;48.104;11.782;2023-03-01T12:22:15;95483.66;;;11.93;27.88
48156;BME280;35568;48.104;11.782;2023-03-01T12:24:54;95476.63;;;11.87;27.79
48156;BME280;35568;48.104;11.782;2023-03-01T12:27:38;95472.36;;;11.95;27.79
48156;BME280;35568;48.104;11.782;2023-03-01T12:30:24;95464.75;;;11.19;28.17
48156;BME280;35568;48.104;11.782;2023-03-01T12:33:02;95464.16;;;11.30;29.27
48156;BME280;35568;48.104;11.782;2023-03-01T12:35:44;95464.55;;;11.46;28.62
48156;BME280;35568;48.104;11.782;2023-03-01T12:38:25;95462.69;;;11.80;28.05
48156;BME280;35568;48.104;11.782;2023-03-01T12:41:13;95466.58;;;11.21;28.56
48156;BME280;35568;48.104;11.782;2023-03-01T12:43:50;95472.02;;;12.35;28.34
48156;BME280;35568;48.104;11.782;2023-03-01T12:46:29;95477.25;;;12.79;27.84
48156;BME280;35568;48.104;11.782;2023-03-01T12:49:07;95467.62;;;12.56;28.13
48156;BME280;35568;48.104;11.782;2023-03-01T12:51:36;95462.35;;;12.73;28.15
48156;BME280;35568;48.104;11.782;2023-03-01T12:54:11;95458.66;;;12.08;28.21
48156;BME280;35568;48.104;11.782;2023-03-01T12:56:42;95460.33;;;11.91;28.47
48156;BME280;35568;48.104;11.782;2023-03-01T12:59:17;95457.80;;;12.49;27.51
48156;BME280;35568;48.104;11.782;2023-03-01T13:01:51;95455.71;;;12.62;28.54
48156;BME280;35568;48.104;11.782;2023-03-01T13:04:29;95455.61;;;11.54;28.61
48156;BME280;35568;48.104;11.782;2023-03-01T13:07:10;95457.82;;;10.90;29.23
48156;BME280;35568;48.104;11.782;2023-03-01T13:09:43;95456.84;;;11.26;30.51
48156;BME280;35568;48.104;11.782;2023-03-01T13:13:21;95460.96;;;11.52;29.38
48156;BME280;35568;48.104;11.782;2023-03-01T13:15:48;95454.59;;;10.88;30.66
48156;BME280;35568;48.104;11.782;2023-03-01T13:18:32;95461.10;;;10.83;30.05